Terminal Aerodrome Forecast
Issued by NWS Twin Cities, MN

Home | Current Version | Previous Version | Text Only | Print | Product List | Glossary Off
Versions: 1 2 3 4 5 6 7 8 9 10 11 12 13 14 15 16 17 18 19 20 21 22 23 24 25 26 27 28 29 30 31 32 33 34 35

856
FTUS43 KMPX 250953 AAE
TAFMSP
TAF AMD
KMSP 250953Z 2510/2612 29007KT P6SM VCSH SCT005 BKN035 OVC090
      TEMPO 2510/2511 4SM -SHRA BKN007 OVC015
     FM251100 32006KT P6SM VCSH BKN007 OVC015
     FM251800 35007KT P6SM BKN015 OVC020
     FM260200 36007KT P6SM VCSH OVC010
     FM260800 36005KT 6SM -SHRA BR BKN007 OVC010=

USA.gov is the U.S. government's official web portal to all federal, state and local government web resources and services.